Time;durP1;ratioP1;P1;durP2;ratioP2;P2;SDS_P1;SDS_P2;PMS_P1;PMS_P2;Temp;Humidity;BMP_temperature;BMP_pressure;BME280_temperature;BME280_humidity;BME280_pressure;Samples;Min_cycle;Max_cycle;Signal;HPM_P1;HPM_P2
2021/05/08 00:02:15;;;;;;;6.47;4.20;;;2.40;99.90;;;;;;5099531;28;20373;-76
2021/05/08 00:04:43;;;;;;;8.23;5.10;;;2.30;99.90;;;;;;5117635;28;20379;-76
2021/05/08 00:07:12;;;;;;;8.45;5.25;;;2.30;99.90;;;;;;5099412;28;20422;-76
2021/05/08 00:09:40;;;;;;;9.43;5.72;;;2.20;99.90;;;;;;5117570;28;20028;-76
2021/05/08 00:12:09;;;;;;;8.07;5.07;;;2.10;99.90;;;;;;5119410;28;20357;-76
2021/05/08 00:14:37;;;;;;;11.32;5.93;;;2.10;99.90;;;;;;5121219;28;20098;-75
2021/05/08 00:17:06;;;;;;;9.73;6.10;;;2.00;99.90;;;;;;5120521;28;20019;-75
2021/05/08 00:19:34;;;;;;;9.40;5.72;;;1.90;99.90;;;;;;5120470;28;20111;-76
2021/05/08 00:22:02;;;;;;;9.10;5.55;;;1.90;99.90;;;;;;5120395;28;20020;-76
2021/05/08 00:24:29;;;;;;;11.18;6.55;;;1.90;99.90;;;;;;5103011;28;20398;-76
2021/05/08 00:26:57;;;;;;;11.43;6.38;;;1.80;99.90;;;;;;5121269;28;20015;-76
2021/05/08 00:29:25;;;;;;;10.80;6.35;;;1.70;99.90;;;;;;5121308;28;20039;-76
2021/05/08 00:31:52;;;;;;;12.13;6.70;;;1.70;99.90;;;;;;5103068;28;20027;-76
2021/05/08 00:34:20;;;;;;;11.20;6.35;;;1.60;99.90;;;;;;5103204;28;20323;-76
2021/05/08 00:36:48;;;;;;;9.75;6.15;;;1.60;99.90;;;;;;5102926;28;20301;-76
2021/05/08 00:39:15;;;;;;;9.30;5.75;;;1.50;99.90;;;;;;5102899;28;20073;-75
2021/05/08 00:41:43;;;;;;;12.88;6.20;;;1.50;99.90;;;;;;5121525;28;20019;-76
2021/05/08 00:44:10;;;;;;;9.50;6.28;;;1.40;99.90;;;;;;5102987;28;20016;-75
2021/05/08 00:46:38;;;;;;;8.95;5.72;;;1.40;99.90;;;;;;5120809;28;20020;-76
2021/05/08 00:49:06;;;;;;;8.95;5.50;;;1.40;99.90;;;;;;5120912;28;20016;-76
2021/05/08 00:51:34;;;;;;;10.80;6.18;;;1.30;99.90;;;;;;5121000;28;20061;-76
2021/05/08 00:54:02;;;;;;;9.35;5.82;;;1.20;99.90;;;;;;5102730;28;20330;-75
2021/05/08 00:56:30;;;;;;;10.60;7.22;;;1.20;99.90;;;;;;5121015;28;20070;-76
2021/05/08 00:58:58;;;;;;;13.48;7.03;;;1.20;99.90;;;;;;5120212;28;20149;-76
2021/05/08 01:01:26;;;;;;;11.02;6.43;;;1.10;99.90;;;;;;5119921;28;20412;-76
2021/05/08 01:03:53;;;;;;;11.68;6.63;;;1.10;99.90;;;;;;5119612;28;20484;-76
2021/05/08 01:06:21;;;;;;;9.10;6.55;;;1.10;99.90;;;;;;5119624;28;20026;-76
2021/05/08 01:08:49;;;;;;;11.82;6.95;;;1.00;99.90;;;;;;5120082;28;20015;-76
2021/05/08 01:11:16;;;;;;;10.75;6.57;;;1.00;99.90;;;;;;5102203;28;20429;-75
2021/05/08 01:13:44;;;;;;;12.27;7.43;;;0.90;99.90;;;;;;5102223;28;20111;-76
2021/05/08 01:16:12;;;;;;;11.65;6.85;;;0.90;99.90;;;;;;5102413;28;20097;-76
2021/05/08 01:18:39;;;;;;;11.15;6.10;;;0.90;99.90;;;;;;5102205;28;20419;-76
2021/05/08 01:21:19;;;;;;;10.77;7.13;;;0.90;99.90;;;;;;5120244;28;20323;-76
2021/05/08 01:23:48;;;;;;;12.07;6.63;;;0.80;99.90;;;;;;5101629;28;20020;-75
2021/05/08 01:26:15;;;;;;;12.63;6.70;;;0.80;99.90;;;;;;5119535;28;20024;-76
2021/05/08 01:28:46;;;;;;;11.07;6.20;;;0.80;99.90;;;;;;5100997;28;20028;-76
2021/05/08 01:31:14;;;;;;;13.40;6.35;;;0.80;99.90;;;;;;5118884;28;20047;-76
2021/05/08 01:33:43;;;;;;;12.88;7.88;;;0.70;99.90;;;;;;5119653;28;20102;-76
2021/05/08 01:36:11;;;;;;;12.20;7.30;;;0.70;99.90;;;;;;5120304;28;20058;-76
2021/05/08 01:38:39;;;;;;;14.60;7.22;;;0.70;99.90;;;;;;5119902;28;20016;-76
2021/05/08 01:41:08;;;;;;;14.15;6.97;;;0.60;99.90;;;;;;5119901;28;20026;-76
2021/05/08 01:43:36;;;;;;;12.75;7.72;;;0.60;99.90;;;;;;5101768;28;20077;-76
2021/05/08 01:46:03;;;;;;;14.70;7.82;;;0.60;99.90;;;;;;5101643;28;20030;-76
2021/05/08 01:48:31;;;;;;;17.73;7.63;;;0.60;99.90;;;;;;5101620;28;20072;-75
2021/05/08 01:50:58;;;;;;;14.50;7.75;;;0.60;99.90;;;;;;5101489;28;20156;-76
2021/05/08 01:53:26;;;;;;;15.23;8.80;;;0.50;99.90;;;;;;5119512;28;20027;-76
2021/05/08 01:55:54;;;;;;;12.90;7.90;;;0.50;99.90;;;;;;5120178;28;20015;-76
2021/05/08 01:58:22;;;;;;;20.50;8.90;;;0.50;99.90;;;;;;5120082;28;20019;-76
2021/05/08 02:00:50;;;;;;;13.82;7.65;;;0.50;99.90;;;;;;5101393;28;20126;-75
2021/05/08 02:03:18;;;;;;;14.82;8.63;;;0.50;99.90;;;;;;5119391;28;20350;-75
2021/05/08 02:05:47;;;;;;;13.27;8.15;;;0.50;99.90;;;;;;5119489;28;20077;-76
2021/05/08 02:08:14;;;;;;;16.70;8.07;;;0.40;99.90;;;;;;5100966;28;20036;-76
2021/05/08 02:10:43;;;;;;;15.50;8.27;;;0.40;99.90;;;;;;5118338;28;20382;-76
2021/05/08 02:13:13;;;;;;;14.13;7.10;;;0.40;99.90;;;;;;5118287;28;20020;-76
2021/05/08 02:15:43;;;;;;;15.65;7.80;;;0.30;99.90;;;;;;5118455;28;20073;-75
2021/05/08 02:18:12;;;;;;;12.98;6.55;;;0.30;99.90;;;;;;5118236;28;20354;-76
2021/05/08 02:20:42;;;;;;;22.20;9.85;;;0.30;99.90;;;;;;5119361;28;20042;-76
2021/05/08 02:23:13;;;;;;;14.65;7.55;;;0.20;99.90;;;;;;5100866;28;20484;-76
2021/05/08 02:25:41;;;;;;;17.58;9.18;;;0.20;99.90;;;;;;5119125;28;20023;-76
2021/05/08 02:28:09;;;;;;;13.75;8.30;;;0.20;99.90;;;;;;5100697;28;20328;-76
2021/05/08 02:30:39;;;;;;;15.10;8.57;;;0.10;99.90;;;;;;5118675;28;20050;-76
2021/05/08 02:33:08;;;;;;;14.43;8.95;;;0.10;99.90;;;;;;5118829;28;20077;-76
2021/05/08 02:35:36;;;;;;;16.42;10.02;;;0.10;99.90;;;;;;5118267;28;20030;-76
2021/05/08 02:38:05;;;;;;;15.55;7.97;;;0.10;99.90;;;;;;5117936;28;20103;-76
2021/05/08 02:40:36;;;;;;;14.45;8.13;;;0.10;99.90;;;;;;5117814;28;20019;-76
2021/05/08 02:43:05;;;;;;;14.73;8.93;;;0.00;99.90;;;;;;5117993;28;20016;-76
2021/05/08 02:45:33;;;;;;;15.90;8.35;;;0.00;99.90;;;;;;5117881;28;20086;-76
2021/05/08 02:48:00;;;;;;;14.98;8.27;;;-0.10;99.90;;;;;;5118859;28;20024;-75
2021/05/08 02:50:28;;;;;;;15.32;8.52;;;-0.10;99.90;;;;;;5118974;28;20031;-75
2021/05/08 02:52:55;;;;;;;18.20;9.88;;;-0.10;99.90;;;;;;5118570;28;20054;-75
2021/05/08 02:55:22;;;;;;;16.50;9.10;;;-0.20;99.90;;;;;;5118887;28;20023;-76
2021/05/08 02:57:50;;;;;;;18.90;10.50;;;-0.20;99.90;;;;;;5118698;28;20433;-76
2021/05/08 03:00:19;;;;;;;20.20;10.20;;;-0.20;99.90;;;;;;5118341;28;20034;-76
2021/05/08 03:02:46;;;;;;;16.58;9.50;;;-0.20;99.90;;;;;;5100262;28;20027;-76
2021/05/08 03:05:14;;;;;;;19.65;10.27;;;-0.10;99.90;;;;;;5118529;28;20020;-76
2021/05/08 03:07:42;;;;;;;18.23;9.55;;;-0.20;99.90;;;;;;5100170;28;20027;-76
2021/05/08 03:10:10;;;;;;;13.15;8.05;;;-0.20;99.90;;;;;;5099978;28;20423;-75
2021/05/08 03:12:38;;;;;;;20.30;9.18;;;-0.20;99.90;;;;;;5118445;28;20093;-76
2021/05/08 03:15:07;;;;;;;18.65;9.10;;;-0.20;99.90;;;;;;5118306;28;20049;-76
2021/05/08 03:17:35;;;;;;;15.68;8.82;;;-0.20;99.90;;;;;;5118120;28;20012;-76
2021/05/08 03:20:03;;;;;;;15.48;8.82;;;-0.20;99.90;;;;;;5117691;28;20022;-76
2021/05/08 03:22:32;;;;;;;20.85;10.25;;;-0.30;99.90;;;;;;5117079;28;20425;-76
2021/05/08 03:25:00;;;;;;;20.65;10.77;;;-0.30;99.90;;;;;;5117140;28;20027;-76
2021/05/08 03:27:27;;;;;;;22.13;12.13;;;-0.30;99.90;;;;;;5117056;28;20019;-76
2021/05/08 03:29:55;;;;;;;16.65;10.40;;;-0.30;99.90;;;;;;5117321;28;20396;-76
2021/05/08 03:32:22;;;;;;;20.45;9.68;;;-0.30;99.90;;;;;;5099924;28;20027;-75
2021/05/08 03:34:51;;;;;;;21.48;10.30;;;-0.30;99.90;;;;;;5117932;28;20069;-76
2021/05/08 03:37:19;;;;;;;17.83;9.57;;;-0.30;99.90;;;;;;5099659;28;20019;-75
2021/05/08 03:39:46;;;;;;;17.15;9.57;;;-0.30;99.90;;;;;;5099971;28;20035;-75
2021/05/08 03:42:13;;;;;;;18.20;10.25;;;-0.40;99.90;;;;;;5118362;28;20024;-75
2021/05/08 03:44:41;;;;;;;19.23;10.63;;;-0.40;99.90;;;;;;5100060;28;20320;-75
2021/05/08 03:47:09;;;;;;;19.73;11.02;;;-0.40;99.90;;;;;;5101902;28;20019;-75
2021/05/08 03:49:38;;;;;;;18.65;11.57;;;-0.40;99.90;;;;;;5103021;28;20028;-76
2021/05/08 03:52:06;;;;;;;25.95;11.48;;;-0.40;99.90;;;;;;5120956;28;20128;-76
2021/05/08 03:54:34;;;;;;;16.77;9.35;;;-0.40;99.90;;;;;;5121309;28;20285;-75
2021/05/08 03:57:02;;;;;;;17.60;10.15;;;-0.40;99.90;;;;;;5103149;28;20019;-75
2021/05/08 03:59:30;;;;;;;20.27;11.02;;;-0.40;99.90;;;;;;5103900;28;20054;-75
2021/05/08 04:01:58;;;;;;;17.85;10.95;;;-0.50;99.90;;;;;;5122063;28;20307;-75
2021/05/08 04:04:25;;;;;;;17.00;10.20;;;-0.50;99.90;;;;;;5121978;28;20023;-75
2021/05/08 04:06:53;;;;;;;17.40;9.90;;;-0.50;99.90;;;;;;5122195;28;20341;-75
2021/05/08 04:09:21;;;;;;;21.65;10.77;;;-0.40;99.90;;;;;;5103592;28;20383;-76
2021/05/08 04:11:49;;;;;;;18.00;10.63;;;-0.40;99.90;;;;;;5121562;28;20023;-76
2021/05/08 04:14:17;;;;;;;21.05;12.05;;;-0.40;99.90;;;;;;5121620;28;20016;-75
2021/05/08 04:16:44;;;;;;;22.58;11.55;;;-0.30;99.90;;;;;;5103374;28;20077;-75
2021/05/08 04:19:12;;;;;;;20.10;10.50;;;-0.30;99.90;;;;;;5103313;28;20393;-75
2021/05/08 04:21:39;;;;;;;23.90;11.38;;;-0.30;99.90;;;;;;5121471;28;20103;-77
2021/05/08 04:24:07;;;;;;;21.25;10.88;;;-0.20;99.90;;;;;;5121277;28;20055;-75
2021/05/08 04:26:38;;;;;;;17.80;10.13;;;-0.20;99.90;;;;;;5103126;28;20038;-74
2021/05/08 04:29:05;;;;;;;16.65;9.70;;;-0.10;99.90;;;;;;5102742;28;20027;-75
2021/05/08 04:31:33;;;;;;;18.98;11.15;;;-0.10;99.90;;;;;;5121113;28;20032;-74
2021/05/08 04:34:01;;;;;;;19.90;10.85;;;-0.10;99.90;;;;;;5102323;28;20404;-74
2021/05/08 04:36:29;;;;;;;20.00;11.57;;;-0.10;99.90;;;;;;5120046;28;20034;-74
2021/05/08 04:39:03;;;;;;;20.00;11.77;;;-0.10;99.90;;;;;;5120617;28;20029;-74
2021/05/08 04:41:30;;;;;;;19.20;10.48;;;-0.10;99.90;;;;;;5120616;28;20028;-74
2021/05/08 04:43:58;;;;;;;19.17;10.52;;;0.00;99.90;;;;;;5121493;28;20027;-74
2021/05/08 04:46:26;;;;;;;21.30;12.55;;;0.00;99.90;;;;;;5120803;28;20027;-74
2021/05/08 04:48:54;;;;;;;23.45;12.75;;;0.00;99.90;;;;;;5102819;28;20115;-74
2021/05/08 04:51:22;;;;;;;23.08;12.73;;;0.10;99.90;;;;;;5102637;28;20028;-74
2021/05/08 04:53:50;;;;;;;22.80;13.35;;;0.20;99.90;;;;;;5102662;28;20069;-74
2021/05/08 04:56:17;;;;;;;25.50;12.85;;;0.20;99.90;;;;;;5121403;28;20016;-75
2021/05/08 04:58:45;;;;;;;20.70;12.02;;;0.30;99.90;;;;;;5119234;28;20023;-75
2021/05/08 05:01:13;;;;;;;22.02;12.77;;;0.40;99.90;;;;;;5119728;28;20059;-74
2021/05/08 05:03:40;;;;;;;22.20;13.00;;;0.40;99.90;;;;;;5119642;28;20051;-74
2021/05/08 05:06:09;;;;;;;25.80;13.32;;;0.50;99.90;;;;;;5119739;28;20020;-74
2021/05/08 05:08:36;;;;;;;20.88;12.68;;;0.60;99.90;;;;;;5119741;28;20024;-74
2021/05/08 05:11:04;;;;;;;21.60;12.23;;;0.70;99.90;;;;;;5120329;28;20024;-75
2021/05/08 05:13:32;;;;;;;23.95;13.40;;;0.70;99.90;;;;;;5120732;28;20031;-75
2021/05/08 05:15:59;;;;;;;21.17;12.35;;;0.80;99.90;;;;;;5102443;28;20027;-75
2021/05/08 05:18:31;;;;;;;21.70;13.23;;;0.90;99.90;;;;;;5102168;28;20024;-75
2021/05/08 05:20:59;;;;;;;23.13;13.55;;;1.00;99.90;;;;;;5120614;28;20411;-75
2021/05/08 05:23:27;;;;;;;28.48;15.43;;;1.00;99.90;;;;;;5120091;28;20077;-75
2021/05/08 05:25:55;;;;;;;23.27;13.60;;;1.10;99.90;;;;;;5120348;28;20016;-76
2021/05/08 05:28:28;;;;;;;29.98;15.73;;;1.30;99.90;;;;;;5120262;28;20034;-76
2021/05/08 05:30:57;;;;;;;32.90;15.65;;;1.40;99.90;;;;;;5119689;28;20070;-74
2021/05/08 05:33:25;;;;;;;27.13;14.63;;;1.50;99.90;;;;;;5120482;28;20358;-75
2021/05/08 05:35:55;;;;;;;33.70;16.92;;;1.60;99.90;;;;;;5120125;28;20020;-74
2021/05/08 05:38:24;;;;;;;29.80;16.65;;;1.70;99.90;;;;;;5120335;28;20016;-75
2021/05/08 05:40:55;;;;;;;27.98;15.73;;;1.80;99.90;;;;;;5101767;28;20028;-74
2021/05/08 05:43:23;;;;;;;29.38;15.82;;;2.00;99.90;;;;;;5119999;28;20080;-74
2021/05/08 05:45:51;;;;;;;27.67;14.30;;;2.10;99.90;;;;;;5119700;28;20032;-73
2021/05/08 05:48:20;;;;;;;32.55;17.35;;;2.30;99.90;;;;;;5118709;28;20027;-73
2021/05/08 05:50:48;;;;;;;32.67;16.95;;;2.50;99.90;;;;;;5118915;28;20020;-74
2021/05/08 05:53:15;;;;;;;32.63;18.27;;;2.60;99.90;;;;;;5100305;28;20023;-74
2021/05/08 05:55:43;;;;;;;30.25;16.38;;;2.80;99.90;;;;;;5119568;28;20020;-76
2021/05/08 05:58:11;;;;;;;25.23;16.35;;;2.90;99.90;;;;;;5101392;28;20019;-76
2021/05/08 06:00:38;;;;;;;27.98;14.75;;;3.10;99.90;;;;;;5119883;28;20026;-75
2021/05/08 06:03:06;;;;;;;24.15;13.25;;;3.30;99.90;;;;;;5101298;28;20031;-75
2021/05/08 06:05:33;;;;;;;24.13;13.40;;;3.40;99.90;;;;;;5120114;28;20039;-75
2021/05/08 06:08:01;;;;;;;21.88;13.57;;;3.60;99.90;;;;;;5119518;28;20111;-75
2021/05/08 06:10:29;;;;;;;18.58;11.80;;;3.80;99.90;;;;;;5117491;28;20398;-76
2021/05/08 06:12:57;;;;;;;19.40;11.65;;;3.90;99.90;;;;;;5118241;28;20020;-73
2021/05/08 06:15:24;;;;;;;16.02;10.32;;;4.10;99.90;;;;;;5100293;28;20114;-74
2021/05/08 06:17:52;;;;;;;17.10;11.32;;;4.30;99.90;;;;;;5118767;28;20022;-75
2021/05/08 06:20:20;;;;;;;20.45;11.85;;;4.50;99.90;;;;;;5119111;28;20452;-74
2021/05/08 06:22:47;;;;;;;25.13;11.07;;;4.60;99.90;;;;;;5118974;28;20088;-73
2021/05/08 06:25:15;;;;;;;15.77;10.13;;;4.80;99.90;;;;;;5119124;28;20433;-74
2021/05/08 06:27:43;;;;;;;19.42;10.50;;;4.90;99.90;;;;;;5100696;28;20027;-75
2021/05/08 06:30:11;;;;;;;20.63;11.63;;;5.00;99.90;;;;;;5097268;28;20096;-75
2021/05/08 06:32:38;;;;;;;14.85;9.60;;;5.10;99.90;;;;;;5097104;28;20024;-79
2021/05/08 06:35:07;;;;;;;16.30;10.18;;;5.20;99.90;;;;;;5098969;28;20043;-74
2021/05/08 06:37:35;;;;;;;19.48;9.82;;;5.30;99.90;;;;;;5097563;28;20032;-75
2021/05/08 06:40:03;;;;;;;15.43;9.65;;;5.40;99.90;;;;;;5098746;28;20027;-77
2021/05/08 06:42:31;;;;;;;16.15;9.82;;;5.50;99.90;;;;;;5096976;28;20028;-78
2021/05/08 06:44:59;;;;;;;16.27;9.68;;;5.60;99.90;;;;;;5097039;28;20024;-77
2021/05/08 06:47:27;;;;;;;14.77;9.00;;;5.70;99.90;;;;;;5098197;28;20027;-80
2021/05/08 06:49:55;;;;;;;18.13;9.55;;;5.90;99.90;;;;;;5098381;28;20024;-80
2021/05/08 06:52:22;;;;;;;15.45;9.75;;;6.00;99.90;;;;;;5098096;28;20451;-78
2021/05/08 06:54:50;;;;;;;16.45;8.98;;;6.10;99.90;;;;;;5096272;28;20054;-77
2021/05/08 06:57:19;;;;;;;13.98;9.18;;;6.20;99.90;;;;;;5097313;28;20016;-76
2021/05/08 06:59:46;;;;;;;14.63;8.02;;;6.30;99.90;;;;;;5095838;28;20042;-83
2021/05/08 07:02:14;;;;;;;14.48;8.88;;;6.40;99.90;;;;;;5097303;28;20028;-77
2021/05/08 07:04:41;;;;;;;13.20;8.88;;;6.50;99.90;;;;;;5098149;28;20347;-76
2021/05/08 07:07:09;;;;;;;16.70;9.63;;;6.60;99.90;;;;;;5098044;28;20375;-77
2021/05/08 07:09:36;;;;;;;13.75;8.57;;;6.80;99.90;;;;;;5096659;28;20047;-76
2021/05/08 07:12:04;;;;;;;16.13;9.10;;;6.90;99.90;;;;;;5098023;28;20024;-76
2021/05/08 07:14:31;;;;;;;14.77;8.60;;;7.00;99.90;;;;;;5096568;28;20103;-77
2021/05/08 07:16:58;;;;;;;12.40;8.40;;;7.10;99.90;;;;;;5098264;28;20024;-80
2021/05/08 07:19:25;;;;;;;13.88;8.52;;;7.30;99.90;;;;;;5096290;28;20495;-80
2021/05/08 07:21:53;;;;;;;14.88;8.63;;;7.40;99.90;;;;;;5095169;28;20031;-79
2021/05/08 07:24:23;;;;;;;12.20;7.82;;;7.50;99.90;;;;;;5096743;28;20104;-77
2021/05/08 07:26:50;;;;;;;15.10;8.98;;;7.60;99.90;;;;;;5096691;28;20028;-77
2021/05/08 07:29:19;;;;;;;13.80;8.13;;;7.70;99.90;;;;;;5099304;28;20066;-77
2021/05/08 07:32:03;;;;;;;14.70;8.07;;;7.80;99.90;;;;;;5178052;27;20467;-77
2021/05/08 07:34:30;;;;;;;16.23;7.88;;;7.90;99.90;;;;;;5157002;27;20433;-77
2021/05/08 07:36:58;;;;;;;16.58;9.32;;;8.00;99.90;;;;;;5136965;27;20026;-77
2021/05/08 07:39:26;;;;;;;13.70;7.90;;;8.10;99.90;;;;;;5136219;28;20030;-77
2021/05/08 07:41:54;;;;;;;13.43;8.15;;;8.20;99.90;;;;;;5136005;28;20351;-77
2021/05/08 07:44:21;;;;;;;13.68;7.72;;;8.30;99.90;;;;;;5136050;28;20031;-77
2021/05/08 07:46:50;;;;;;;14.35;7.85;;;8.40;99.90;;;;;;5117471;28;20028;-77
2021/05/08 07:49:18;;;;;;;10.73;7.13;;;8.50;99.90;;;;;;5135829;28;20032;-77
2021/05/08 07:51:46;;;;;;;15.40;7.05;;;8.70;99.90;;;;;;5136087;28;20073;-77
2021/05/08 07:54:14;;;;;;;13.05;6.90;;;8.80;99.90;;;;;;5135781;27;20023;-77
2021/05/08 07:56:41;;;;;;;8.35;5.45;;;8.90;99.70;;;;;;5117233;28;20176;-77
2021/05/08 07:59:09;;;;;;;8.35;5.43;;;9.10;96.10;;;;;;5135875;28;20396;-77
2021/05/08 08:01:37;;;;;;;7.10;3.97;;;9.30;96.20;;;;;;5117133;28;20030;-77
2021/05/08 08:04:06;;;;;;;10.57;5.53;;;9.50;93.90;;;;;;5116467;28;20104;-77
2021/05/08 08:06:34;;;;;;;10.45;5.60;;;9.70;93.70;;;;;;5116060;28;20031;-77
2021/05/08 08:09:02;;;;;;;9.57;5.57;;;9.90;93.60;;;;;;5134356;27;20429;-78
2021/05/08 08:11:31;;;;;;;11.15;5.35;;;10.00;93.90;;;;;;5134189;28;20114;-78
2021/05/08 08:13:58;;;;;;;8.93;5.32;;;10.10;94.00;;;;;;5134581;28;20022;-80
2021/05/08 08:16:26;;;;;;;10.27;5.97;;;10.20;92.50;;;;;;5135126;28;20012;-78
2021/05/08 08:18:54;;;;;;;10.27;5.38;;;10.30;92.70;;;;;;5117143;28;20051;-79
2021/05/08 08:21:23;;;;;;;12.77;5.85;;;10.40;91.10;;;;;;5116871;28;20023;-78
2021/05/08 08:23:51;;;;;;;8.60;4.85;;;10.60;90.30;;;;;;5116776;28;20451;-78
2021/05/08 08:26:20;;;;;;;9.27;5.25;;;10.60;90.00;;;;;;5134936;28;20024;-77
2021/05/08 08:28:47;;;;;;;6.57;3.78;;;10.70;89.60;;;;;;5135167;28;20076;-78
2021/05/08 08:31:15;;;;;;;8.70;3.30;;;10.90;83.70;;;;;;5133722;28;20127;-78
2021/05/08 08:33:43;;;;;;;9.68;3.45;;;11.00;75.30;;;;;;5116459;28;20024;-78
2021/05/08 08:36:11;;;;;;;8.02;3.20;;;11.20;75.20;;;;;;5134015;28;20427;-78
2021/05/08 08:38:38;;;;;;;6.22;3.38;;;11.30;69.50;;;;;;5133957;27;20016;-77
2021/05/08 08:41:16;;;;;;;6.70;3.13;;;11.50;67.40;;;;;;5115525;28;20020;-78
2021/05/08 08:43:46;;;;;;;12.52;4.22;;;11.60;65.80;;;;;;5119592;28;20027;-76
2021/05/08 08:46:17;;;;;;;8.77;3.53;;;11.70;64.80;;;;;;5120241;28;20118;-76
2021/05/08 08:48:46;;;;;;;6.93;2.95;;;11.80;63.50;;;;;;5101656;28;20124;-77
2021/05/08 08:51:16;;;;;;;7.18;3.53;;;11.90;63.30;;;;;;5103394;28;20434;-77
2021/05/08 08:53:44;;;;;;;6.85;3.03;;;12.00;60.10;;;;;;5102588;28;20032;-77
2021/05/08 08:56:19;;;;;;;6.82;3.40;;;12.20;59.00;;;;;;5120696;28;20019;-77
2021/05/08 08:58:54;;;;;;;9.32;3.67;;;12.30;58.20;;;;;;5121025;28;20016;-77
2021/05/08 09:01:22;;;;;;;7.22;3.65;;;12.40;59.30;;;;;;5121154;28;20047;-77
2021/05/08 09:03:49;;;;;;;7.95;4.13;;;12.60;59.60;;;;;;5120718;28;20023;-76
2021/05/08 09:06:19;;;;;;;9.85;3.53;;;12.70;61.80;;;;;;5120100;28;20073;-76
2021/05/08 09:08:47;;;;;;;5.93;3.58;;;12.90;60.80;;;;;;5119603;28;20027;-76
2021/05/08 09:11:23;;;;;;;6.82;4.05;;;13.00;60.50;;;;;;5119348;28;20023;-77
2021/05/08 09:14:21;;;;;;;8.85;4.70;;;13.30;58.30;;;;;;5119464;28;20403;-76
2021/05/08 09:17:10;;;;;;;8.07;5.00;;;13.50;59.50;;;;;;5111580;28;20020;-76
2021/05/08 09:19:40;;;;;;;10.63;4.45;;;13.70;58.20;;;;;;5119542;28;20023;-79
2021/05/08 09:22:27;;;;;;;8.75;4.75;;;13.90;59.50;;;;;;5119245;28;20323;-76
2021/05/08 09:24:55;;;;;;;;;;;14.10;58.40;;;;;;5120259;28;20023;-77
2021/05/08 09:27:37;;;;;;;7.07;4.57;;;14.20;59.20;;;;;;5120096;28;19904;-76
2021/05/08 09:30:05;;;;;;;11.30;5.75;;;14.40;57.50;;;;;;5119650;28;20069;-76
2021/05/08 09:32:48;;;;;;;9.52;4.90;;;14.60;56.60;;;;;;5101938;28;20332;-80
2021/05/08 09:35:29;;;;;;;11.85;5.10;;;14.70;56.60;;;;;;5119905;28;20016;-76
2021/05/08 09:38:18;;;;;;;8.15;5.03;;;14.80;56.00;;;;;;5101660;28;20023;-76
2021/05/08 09:40:48;;;;;;;8.15;5.07;;;14.90;57.20;;;;;;5101562;28;20023;-76
2021/05/08 09:43:20;;;;;;;9.10;4.45;;;15.00;55.70;;;;;;5100614;28;20024;-76
2021/05/08 09:45:53;;;;;;;9.43;4.60;;;15.10;55.70;;;;;;5100666;28;20107;-76
2021/05/08 09:48:23;;;;;;;8.55;4.68;;;15.20;56.10;;;;;;5100528;28;20327;-76
2021/05/08 09:50:51;;;;;;;7.72;5.13;;;15.20;56.00;;;;;;5119003;28;20027;-76
2021/05/08 09:53:33;;;;;;;10.57;5.47;;;15.30;54.90;;;;;;5099515;28;20119;-75
2021/05/08 09:56:01;;;;;;;8.68;5.13;;;15.30;54.30;;;;;;5118588;28;20023;-75
2021/05/08 09:58:31;;;;;;;7.30;5.18;;;15.40;55.10;;;;;;5118961;28;20015;-76
2021/05/08 10:00:59;;;;;;;7.78;4.75;;;15.40;56.20;;;;;;5119487;28;20442;-87
2021/05/08 10:03:36;;;;;;;10.32;5.22;;;15.50;57.50;;;;;;5119672;28;20072;-78
2021/05/08 10:06:04;;;;;;;11.45;4.68;;;15.50;56.90;;;;;;5101349;28;20328;-78
2021/05/08 10:08:32;;;;;;;7.70;4.90;;;15.60;56.10;;;;;;5119240;28;20024;-76
2021/05/08 10:10:59;;;;;;;8.55;4.60;;;15.60;55.80;;;;;;5119269;28;20088;-74
2021/05/08 10:13:28;;;;;;;7.07;3.53;;;15.60;54.10;;;;;;5119148;28;20400;-74
2021/05/08 10:16:00;;;;;;;5.75;3.83;;;15.60;55.20;;;;;;5118245;28;20042;-76
2021/05/08 10:18:33;;;;;;;5.93;4.18;;;15.60;55.20;;;;;;5118004;28;20419;-75
2021/05/08 10:21:01;;;;;;;9.15;4.68;;;15.60;54.30;;;;;;5118643;28;20034;-76
2021/05/08 10:23:30;;;;;;;12.45;6.50;;;15.60;54.70;;;;;;5118531;28;20023;-79
2021/05/08 10:26:04;;;;;;;8.80;5.65;;;15.70;54.80;;;;;;5099765;28;20028;-80
2021/05/08 10:28:32;;;;;;;7.18;4.22;;;15.80;57.50;;;;;;5117884;28;20026;-76
2021/05/08 10:30:59;;;;;;;6.53;3.63;;;15.80;55.40;;;;;;5118007;28;20043;-79
2021/05/08 10:33:28;;;;;;;5.57;3.40;;;15.90;55.10;;;;;;5118317;28;20427;-77
2021/05/08 10:35:56;;;;;;;5.22;3.95;;;15.90;54.10;;;;;;5118798;28;20023;-76
2021/05/08 10:38:31;;;;;;;4.95;3.40;;;15.90;54.90;;;;;;5118634;28;20023;-82
2021/05/08 10:41:02;;;;;;;4.60;3.42;;;16.00;54.90;;;;;;5119141;28;20102;-76
2021/05/08 10:43:42;;;;;;;9.07;3.60;;;16.00;54.60;;;;;;5118571;28;20028;-76
2021/05/08 10:46:17;;;;;;;4.32;2.90;;;16.10;56.40;;;;;;5119281;28;20015;-76
2021/05/08 10:49:06;;;;;;;5.93;3.00;;;16.30;54.00;;;;;;5118498;28;20027;-75
2021/05/08 10:51:59;;;;;;;5.60;3.20;;;16.50;54.30;;;;;;5099398;28;20028;-77
2021/05/08 10:54:42;;;;;;;8.32;3.63;;;16.70;53.40;;;;;;5117764;28;20102;-75
2021/05/08 10:57:23;;;;;;;6.38;3.10;;;16.90;52.90;;;;;;5118008;28;20051;-75
2021/05/08 11:00:09;;;;;;;4.65;2.83;;;17.00;51.70;;;;;;5119112;28;20024;-74
2021/05/08 11:02:43;;;;;;;;;;;17.10;52.90;;;;;;5118363;28;20015;-76
2021/05/08 11:05:27;;;;;;;4.57;3.10;;;17.20;52.00;;;;;;5117286;28;19904;-73
2021/05/08 11:07:55;;;;;;;4.07;2.80;;;17.20;50.10;;;;;;5117676;28;20043;-74
2021/05/08 11:10:33;;;;;;;5.05;2.65;;;17.20;49.60;;;;;;5118009;28;20439;-74
2021/05/08 11:13:11;;;;;;;4.70;2.50;;;17.20;50.70;;;;;;5118776;28;20020;-74
2021/05/08 11:15:55;;;;;;;3.85;2.40;;;17.20;49.90;;;;;;5118300;28;20016;-74
2021/05/08 11:18:32;;;;;;;4.32;2.88;;;17.20;51.10;;;;;;5118477;28;20040;-76
2021/05/08 11:21:09;;;;;;;4.07;2.40;;;17.30;51.30;;;;;;5100108;28;20062;-76
2021/05/08 11:23:52;;;;;;;5.22;2.33;;;17.30;48.90;;;;;;5099712;28;20124;-73
2021/05/08 11:26:23;;;;;;;4.22;2.33;;;17.30;49.90;;;;;;5099119;28;20483;-82
2021/05/08 11:28:58;;;;;;;5.65;2.40;;;17.40;49.10;;;;;;5098881;28;20038;-74
2021/05/08 11:31:36;;;;;;;4.85;2.10;;;17.50;47.80;;;;;;5095406;28;20367;-74
2021/05/08 11:34:08;;;;;;;4.18;2.50;;;17.50;48.20;;;;;;5097115;28;20028;-75
2021/05/08 11:36:52;;;;;;;7.07;2.10;;;17.50;48.10;;;;;;5096558;28;20021;-74
2021/05/08 11:39:35;;;;;;;3.70;1.90;;;17.50;48.00;;;;;;5096709;28;20016;-74
2021/05/08 11:42:11;;;;;;;5.05;1.98;;;17.60;47.80;;;;;;5097277;28;20059;-74
2021/05/08 11:44:43;;;;;;;2.67;1.92;;;17.50;48.20;;;;;;5095716;28;20028;-74
2021/05/08 11:47:36;;;;;;;8.55;2.53;;;17.40;48.00;;;;;;5097324;28;20029;-75
2021/05/08 11:50:07;;;;;;;4.97;2.40;;;17.40;47.10;;;;;;5097231;28;20081;-75
2021/05/08 11:52:42;;;;;;;3.22;1.77;;;17.40;47.40;;;;;;5097195;28;20373;-75
2021/05/08 11:55:21;;;;;;;3.80;2.40;;;17.40;48.70;;;;;;5097189;28;20412;-75
2021/05/08 11:58:01;;;;;;;3.38;1.90;;;17.60;47.00;;;;;;5096132;28;20100;-75
2021/05/08 12:00:33;;;;;;;4.43;1.98;;;17.70;46.40;;;;;;5096391;28;20057;-75
2021/05/08 12:03:13;;;;;;;3.15;1.70;;;17.80;45.60;;;;;;5095639;28;20336;-75
2021/05/08 12:05:45;;;;;;;4.60;2.08;;;17.90;46.20;;;;;;5095345;28;20059;-75
2021/05/08 12:08:22;;;;;;;2.83;1.52;;;18.00;44.90;;;;;;5096374;28;20073;-75
2021/05/08 12:10:51;;;;;;;3.22;1.88;;;18.10;45.10;;;;;;5096245;28;20020;-75
2021/05/08 12:13:19;;;;;;;4.18;1.90;;;18.40;46.40;;;;;;5096210;28;20027;-74
2021/05/08 12:15:51;;;;;;;4.95;2.25;;;18.50;46.00;;;;;;5096233;28;20039;-75
2021/05/08 12:18:21;;;;;;;3.45;1.90;;;18.60;43.40;;;;;;5099298;28;20020;-75
2021/05/08 12:20:50;;;;;;;3.10;2.03;;;18.50;45.50;;;;;;5100633;28;20044;-75
2021/05/08 12:23:24;;;;;;;3.92;1.83;;;18.50;44.80;;;;;;5100709;28;20031;-75
2021/05/08 12:26:12;;;;;;;3.10;1.55;;;18.70;43.80;;;;;;5101103;28;20454;-75
2021/05/08 12:28:55;;;;;;;3.10;1.70;;;18.80;43.40;;;;;;5101095;28;20065;-75
2021/05/08 12:31:34;;;;;;;3.17;1.77;;;18.90;44.10;;;;;;5099558;28;20506;-76
2021/05/08 12:34:12;;;;;;;2.53;1.60;;;19.00;43.50;;;;;;5100799;28;20052;-75
2021/05/08 12:36:41;;;;;;;4.45;1.98;;;19.10;43.20;;;;;;5100410;28;20020;-75
2021/05/08 12:39:26;;;;;;;5.20;1.92;;;19.20;42.40;;;;;;5099582;28;20095;-75
2021/05/08 12:42:01;;;;;;;4.00;2.05;;;19.20;42.20;;;;;;5099766;28;20048;-75
2021/05/08 12:44:44;;;;;;;4.72;1.55;;;19.10;42.30;;;;;;5100174;28;20027;-75
2021/05/08 12:47:20;;;;;;;4.07;1.90;;;19.10;42.60;;;;;;5099466;28;20035;-75
2021/05/08 12:50:11;;;;;;;2.70;1.42;;;19.00;41.20;;;;;;5099607;28;20340;-75
2021/05/08 12:52:41;;;;;;;2.58;1.40;;;19.10;41.70;;;;;;5098322;28;20119;-75
2021/05/08 12:55:30;;;;;;;2.58;1.88;;;19.30;41.50;;;;;;5099366;28;20473;-75
2021/05/08 12:58:10;;;;;;;2.83;1.40;;;19.50;41.90;;;;;;5099050;28;20028;-75
2021/05/08 13:00:53;;;;;;;2.53;1.23;;;19.60;40.60;;;;;;5099075;28;20028;-75